»·PEaware :: N5529G L52-L88

N5529G :: L52-L88

FLIGHT INFORMATION

Flight Status: Arrived
Operator: Privately registered:
United States
More flights under this callsign
Pilot: Bill H. (17578)
Aircraft: CESSNA 182 SKYLANE
(C182)
More flights by this aircraft type
Origin: L52 Oceano Co
United States
Destination: L88 New Cuyama
United States
More flights between these airports :: More routes between these airports
Route: FLW
File this flight plan on PilotEdge
Remarks: FSX CAT-1
Altitude:
(Current/Filed)
3,500ft
Speed:
(Current/Filed)
130kts
Departed: 07-Jan-18 09:45 AM
Arrived: 07-Jan-18 10:14 AM
Distance/Time
Traveled:
47nm/0:29
Distance/Time
To Go:
Arrived

Flight Plot

Page will automatically refresh every two minutes.


Map Options




Map Legend


Flown Route
Filed Route
Departure Airport
Arrival Airport
Navaid (VOR, NDB)
Fix

Horizontal Profiles

Position Reports

Time Latitude Longitude Heading Altitude Ground
Speed
07-Jan-18 09:32 35.103474 -120.624708 213 17ft 0kts
07-Jan-18 09:33 35.103474 -120.624708 213 17ft 0kts
07-Jan-18 09:34 35.103472 -120.624709 213 17ft 0kts
07-Jan-18 09:35 35.103468 -120.624712 213 17ft 0kts
07-Jan-18 09:36 35.103465 -120.624714 213 17ft 0kts
07-Jan-18 09:37 35.103462 -120.624717 213 17ft 0kts
07-Jan-18 09:38 35.103458 -120.624720 213 17ft 0kts
07-Jan-18 09:39 35.103209 -120.624503 121 17ft 8kts
07-Jan-18 09:40 35.101705 -120.623604 122 17ft 13kts
07-Jan-18 09:41 35.099492 -120.619571 29 17ft 0kts
07-Jan-18 09:42 35.099495 -120.619568 29 17ft 0kts
07-Jan-18 09:43 35.099499 -120.619566 29 17ft 0kts
07-Jan-18 09:44 35.099502 -120.619563 29 17ft 0kts
07-Jan-18 09:45 35.099506 -120.619561 29 17ft 0kts
07-Jan-18 09:46 35.099509 -120.619558 29 17ft 0kts
07-Jan-18 09:47 35.099514 -120.619555 29 17ft 0kts
07-Jan-18 09:48 35.099522 -120.619550 29 17ft 0kts
07-Jan-18 09:49 35.099526 -120.619547 29 17ft 0kts
07-Jan-18 09:50 35.099562 -120.619521 30 17ft 4kts
07-Jan-18 09:51 35.105511 -120.630743 298 410ft 84kts
07-Jan-18 09:52 35.094146 -120.653242 178 1186ft 99kts
07-Jan-18 09:53 35.079216 -120.624869 113 1393ft 103kts
07-Jan-18 09:54 35.069578 -120.596899 113 1604ft 110kts
07-Jan-18 09:55 35.063097 -120.561687 70 2018ft 113kts
07-Jan-18 09:56 35.076431 -120.527317 60 3074ft 105kts
07-Jan-18 09:57 35.093561 -120.496711 52 3777ft 115kts
07-Jan-18 09:58 35.108348 -120.460163 84 3469ft 124kts
07-Jan-18 09:59 35.110710 -120.416950 87 3431ft 134kts
07-Jan-18 10:00 35.110977 -120.371419 88 3575ft 134kts
07-Jan-18 10:01 35.111057 -120.325451 88 3803ft 138kts
07-Jan-18 10:02 35.110999 -120.276079 91 3721ft 148kts
07-Jan-18 10:03 35.109344 -120.227172 90 3649ft 136kts
07-Jan-18 10:04 35.107764 -120.180607 94 3643ft 137kts
07-Jan-18 10:05 35.103114 -120.134492 98 3644ft 137kts
07-Jan-18 10:06 35.095760 -120.088416 103 3612ft 138kts
07-Jan-18 10:07 35.084023 -120.044041 114 3616ft 140kts
07-Jan-18 10:08 35.065790 -120.004840 124 3513ft 130kts
07-Jan-18 10:09 35.044767 -119.970501 124 3526ft 120kts
07-Jan-18 10:10 35.026309 -119.935423 118 3526ft 121kts
07-Jan-18 10:11 35.010268 -119.898840 116 3509ft 120kts
07-Jan-18 10:12 34.996590 -119.861623 114 3478ft 121kts
07-Jan-18 10:13 34.982852 -119.822859 111 3283ft 119kts
07-Jan-18 10:14 34.970548 -119.785816 114 3133ft 124kts
07-Jan-18 10:15 34.958883 -119.751997 114 3309ft 122kts
07-Jan-18 10:16 34.944064 -119.717377 118 3122ft 118kts
07-Jan-18 10:17 34.926763 -119.686697 132 3141ft 91kts
07-Jan-18 10:18 34.919735 -119.663840 19 2916ft 97kts
07-Jan-18 10:19 34.935789 -119.675436 297 2316ft 71kts
07-Jan-18 10:20 34.941319 -119.688922 295 2206ft 32kts
07-Jan-18 10:21 34.942955 -119.691136 27 2206ft 2kts
07-Jan-18 10:22 34.943018 -119.690790 125 2206ft 0kts
07-Jan-18 10:23 34.943018 -119.690790 125 2206ft 0kts

Navigation Log

Ident Type
Flight plan parsing failed, navigation log unavailable